sensor_id;sensor_type;location;lat;lon;timestamp;pressure;altitude;pressure_sealevel;temperature;humidity
48774;BME280;34576;0.000;0.000;2024-02-14T00:00:14;97065.69;;;16.84;69.86
48774;BME280;34576;0.000;0.000;2024-02-14T00:07:15;97080.84;;;16.83;69.79
48774;BME280;34576;0.000;0.000;2024-02-14T00:14:16;97081.63;;;16.84;69.80
48774;BME280;34576;0.000;0.000;2024-02-14T00:21:16;97084.03;;;16.85;69.71
48774;BME280;34576;0.000;0.000;2024-02-14T00:28:16;97095.69;;;16.84;70.46
48774;BME280;34576;0.000;0.000;2024-02-14T00:35:17;97113.50;;;16.84;70.68
48774;BME280;34576;0.000;0.000;2024-02-14T00:42:18;97122.00;;;16.86;71.00
48774;BME280;34576;0.000;0.000;2024-02-14T00:49:18;97126.53;;;16.85;71.15
48774;BME280;34576;0.000;0.000;2024-02-14T00:56:18;97120.22;;;16.91;71.58
48774;BME280;34576;0.000;0.000;2024-02-14T01:03:19;97117.03;;;16.89;71.96
48774;BME280;34576;0.000;0.000;2024-02-14T01:10:20;97119.72;;;16.95;72.34
48774;BME280;34576;0.000;0.000;2024-02-14T01:17:20;97136.16;;;16.91;72.22
48774;BME280;34576;0.000;0.000;2024-02-14T01:24:20;97123.44;;;16.94;71.90
48774;BME280;34576;0.000;0.000;2024-02-14T01:31:22;97125.31;;;16.98;71.93
48774;BME280;34576;0.000;0.000;2024-02-14T01:38:23;97113.31;;;16.90;72.40
48774;BME280;34576;0.000;0.000;2024-02-14T01:45:23;97105.88;;;16.93;72.33
48774;BME280;34576;0.000;0.000;2024-02-14T01:52:23;97102.75;;;17.01;71.63
48774;BME280;34576;0.000;0.000;2024-02-14T01:59:24;97101.69;;;17.02;71.54
48774;BME280;34576;0.000;0.000;2024-02-14T02:06:24;97100.88;;;17.01;71.52
48774;BME280;34576;0.000;0.000;2024-02-14T02:13:26;97075.63;;;17.04;71.12
48774;BME280;34576;0.000;0.000;2024-02-14T02:20:27;97089.47;;;17.06;69.83
48774;BME280;34576;0.000;0.000;2024-02-14T02:27:28;97080.94;;;16.99;71.79
48774;BME280;34576;0.000;0.000;2024-02-14T02:34:28;97079.06;;;16.99;72.52
48774;BME280;34576;0.000;0.000;2024-02-14T02:41:28;97073.47;;;16.96;73.04
48774;BME280;34576;0.000;0.000;2024-02-14T02:48:28;97087.28;;;16.93;73.10
48774;BME280;34576;0.000;0.000;2024-02-14T02:55:29;97083.31;;;16.95;73.22
48774;BME280;34576;0.000;0.000;2024-02-14T03:02:30;97089.41;;;16.96;73.47
48774;BME280;34576;0.000;0.000;2024-02-14T03:09:30;97098.47;;;16.95;73.32
48774;BME280;34576;0.000;0.000;2024-02-14T03:16:31;97099.50;;;16.94;73.60
48774;BME280;34576;0.000;0.000;2024-02-14T03:23:32;97088.88;;;16.94;73.91
48774;BME280;34576;0.000;0.000;2024-02-14T03:30:32;97087.84;;;16.95;73.37
48774;BME280;34576;0.000;0.000;2024-02-14T03:37:34;97085.66;;;16.91;73.58
48774;BME280;34576;0.000;0.000;2024-02-14T03:44:34;97080.91;;;16.94;73.50
48774;BME280;34576;0.000;0.000;2024-02-14T03:51:34;97104.56;;;16.95;73.26
48774;BME280;34576;0.000;0.000;2024-02-14T03:58:35;97101.91;;;16.95;73.10
48774;BME280;34576;0.000;0.000;2024-02-14T04:05:37;97110.41;;;16.92;73.25
48774;BME280;34576;0.000;0.000;2024-02-14T04:12:37;97114.91;;;16.91;73.40
48774;BME280;34576;0.000;0.000;2024-02-14T04:19:37;97132.22;;;16.99;73.22
48774;BME280;34576;0.000;0.000;2024-02-14T04:26:38;97146.03;;;16.96;73.35
48774;BME280;34576;0.000;0.000;2024-02-14T04:33:38;97144.16;;;16.97;73.07
48774;BME280;34576;0.000;0.000;2024-02-14T04:40:39;97138.06;;;16.96;73.03
48774;BME280;34576;0.000;0.000;2024-02-14T04:47:39;97140.41;;;16.93;73.51
48774;BME280;34576;0.000;0.000;2024-02-14T04:54:40;97150.00;;;16.94;73.34
48774;BME280;34576;0.000;0.000;2024-02-14T05:01:40;97148.94;;;16.95;74.20
48774;BME280;34576;0.000;0.000;2024-02-14T05:08:40;97148.41;;;16.93;73.69
48774;BME280;34576;0.000;0.000;2024-02-14T05:15:41;97126.13;;;16.99;73.29
48774;BME280;34576;0.000;0.000;2024-02-14T05:22:41;97144.97;;;16.97;73.46
48774;BME280;34576;0.000;0.000;2024-02-14T05:29:42;97152.09;;;16.91;74.00
48774;BME280;34576;0.000;0.000;2024-02-14T05:36:42;97155.84;;;16.90;73.87
48774;BME280;34576;0.000;0.000;2024-02-14T05:43:43;97140.41;;;16.93;74.00
48774;BME280;34576;0.000;0.000;2024-02-14T05:50:43;97110.13;;;16.94;74.17
48774;BME280;34576;0.000;0.000;2024-02-14T05:57:43;97130.56;;;16.88;74.43
48774;BME280;34576;0.000;0.000;2024-02-14T06:04:44;97138.59;;;16.93;74.16
48774;BME280;34576;0.000;0.000;2024-02-14T06:11:44;97148.91;;;16.89;74.52
48774;BME280;34576;0.000;0.000;2024-02-14T06:18:45;97142.00;;;16.88;74.55
48774;BME280;34576;0.000;0.000;2024-02-14T06:25:45;97138.28;;;16.89;74.37
48774;BME280;34576;0.000;0.000;2024-02-14T06:32:45;97135.09;;;16.93;74.49
48774;BME280;34576;0.000;0.000;2024-02-14T06:39:45;97150.53;;;16.90;74.57
48774;BME280;34576;0.000;0.000;2024-02-14T06:46:48;97156.31;;;16.87;74.57
48774;BME280;34576;0.000;0.000;2024-02-14T06:53:49;97167.41;;;16.79;74.97
48774;BME280;34576;0.000;0.000;2024-02-14T07:00:49;97167.94;;;16.81;75.13
48774;BME280;34576;0.000;0.000;2024-02-14T07:07:50;97182.31;;;16.80;75.14
48774;BME280;34576;0.000;0.000;2024-02-14T07:14:50;97168.03;;;16.91;74.14
48774;BME280;34576;0.000;0.000;2024-02-14T07:21:51;97189.63;;;14.35;59.40
48774;BME280;34576;0.000;0.000;2024-02-14T07:28:51;97195.00;;;13.94;57.11
48774;BME280;34576;0.000;0.000;2024-02-14T07:35:52;97191.97;;;14.02;55.76
48774;BME280;34576;0.000;0.000;2024-02-14T07:42:52;97198.44;;;13.94;55.51
48774;BME280;34576;0.000;0.000;2024-02-14T07:49:52;97198.81;;;13.86;55.10
48774;BME280;34576;0.000;0.000;2024-02-14T07:56:53;97203.63;;;15.15;56.36
48774;BME280;34576;0.000;0.000;2024-02-14T08:03:53;97208.97;;;15.59;59.28
48774;BME280;34576;0.000;0.000;2024-02-14T08:10:54;97209.38;;;15.73;60.44
48774;BME280;34576;0.000;0.000;2024-02-14T08:17:55;97226.50;;;15.82;61.53
48774;BME280;34576;0.000;0.000;2024-02-14T08:24:57;97230.03;;;15.88;62.14
48774;BME280;34576;0.000;0.000;2024-02-14T08:31:57;97229.84;;;15.95;62.59
48774;BME280;34576;0.000;0.000;2024-02-14T08:38:57;97233.84;;;15.97;63.09
48774;BME280;34576;0.000;0.000;2024-02-14T08:45:58;97248.47;;;16.00;63.79
48774;BME280;34576;0.000;0.000;2024-02-14T08:52:58;97248.22;;;16.01;64.19
48774;BME280;34576;0.000;0.000;2024-02-14T08:59:58;97254.09;;;16.03;64.28
48774;BME280;34576;0.000;0.000;2024-02-14T09:07:00;97261.31;;;16.08;64.47
48774;BME280;34576;0.000;0.000;2024-02-14T09:14:01;97254.88;;;16.04;64.85
48774;BME280;34576;0.000;0.000;2024-02-14T09:21:04;97259.69;;;16.07;65.00
48774;BME280;34576;0.000;0.000;2024-02-14T09:28:05;97251.47;;;16.09;65.05
48774;BME280;34576;0.000;0.000;2024-02-14T09:35:07;97249.94;;;16.13;65.06
48774;BME280;34576;0.000;0.000;2024-02-14T09:42:13;97245.22;;;16.20;65.08
48774;BME280;34576;0.000;0.000;2024-02-14T09:49:13;97237.59;;;16.24;64.87
48774;BME280;34576;0.000;0.000;2024-02-14T09:56:14;97243.94;;;16.22;65.37
48774;BME280;34576;0.000;0.000;2024-02-14T10:03:17;97253.50;;;16.24;65.35
48774;BME280;34576;0.000;0.000;2024-02-14T10:10:17;97247.13;;;16.25;65.45
48774;BME280;34576;0.000;0.000;2024-02-14T10:17:18;97257.75;;;16.25;65.65
48774;BME280;34576;0.000;0.000;2024-02-14T10:24:19;97255.91;;;16.25;65.52
48774;BME280;34576;0.000;0.000;2024-02-14T10:31:19;97258.31;;;16.27;65.59
48774;BME280;34576;0.000;0.000;2024-02-14T10:38:20;97264.16;;;16.29;65.63
48774;BME280;34576;0.000;0.000;2024-02-14T10:45:22;97254.91;;;16.31;65.62
48774;BME280;34576;0.000;0.000;2024-02-14T10:52:22;97248.81;;;16.31;65.66
48774;BME280;34576;0.000;0.000;2024-02-14T10:59:24;97248.81;;;16.31;65.60
48774;BME280;34576;0.000;0.000;2024-02-14T11:06:25;97255.47;;;16.33;65.68
48774;BME280;34576;0.000;0.000;2024-02-14T11:13:26;97247.50;;;16.33;65.81
48774;BME280;34576;0.000;0.000;2024-02-14T11:20:34;97247.75;;;16.32;65.85
48774;BME280;34576;0.000;0.000;2024-02-14T11:27:34;97251.75;;;16.34;65.81
48774;BME280;34576;0.000;0.000;2024-02-14T11:34:35;97252.31;;;16.36;65.71
48774;BME280;34576;0.000;0.000;2024-02-14T11:41:35;97259.97;;;16.33;65.92
48774;BME280;34576;0.000;0.000;2024-02-14T11:48:38;97257.31;;;16.33;65.98
48774;BME280;34576;0.000;0.000;2024-02-14T11:55:39;97244.03;;;16.33;65.80
48774;BME280;34576;0.000;0.000;2024-02-14T12:02:39;97251.75;;;16.34;65.98
48774;BME280;34576;0.000;0.000;2024-02-14T12:09:40;97238.78;;;16.38;65.87
48774;BME280;34576;0.000;0.000;2024-02-14T12:16:40;97234.50;;;16.37;65.80
48774;BME280;34576;0.000;0.000;2024-02-14T12:23:40;97223.09;;;16.36;66.07
48774;BME280;34576;0.000;0.000;2024-02-14T12:30:47;97221.00;;;16.38;66.19
48774;BME280;34576;0.000;0.000;2024-02-14T12:37:56;97217.03;;;16.41;65.89
48774;BME280;34576;0.000;0.000;2024-02-14T12:44:56;97217.53;;;16.38;66.07
48774;BME280;34576;0.000;0.000;2024-02-14T12:51:56;97216.50;;;16.39;66.30
48774;BME280;34576;0.000;0.000;2024-02-14T12:58:57;97219.94;;;16.39;66.38
48774;BME280;34576;0.000;0.000;2024-02-14T13:05:59;97214.91;;;16.43;66.35
48774;BME280;34576;0.000;0.000;2024-02-14T13:13:00;97203.31;;;16.49;66.28
48774;BME280;34576;0.000;0.000;2024-02-14T13:20:00;97206.47;;;16.46;66.40
48774;BME280;34576;0.000;0.000;2024-02-14T13:27:01;97195.88;;;16.51;66.42
48774;BME280;34576;0.000;0.000;2024-02-14T13:34:01;97196.94;;;16.50;66.39
48774;BME280;34576;0.000;0.000;2024-02-14T13:41:03;97203.31;;;16.49;66.66
48774;BME280;34576;0.000;0.000;2024-02-14T13:48:03;97205.97;;;16.49;66.71
48774;BME280;34576;0.000;0.000;2024-02-14T13:55:05;97198.00;;;16.49;66.67
48774;BME280;34576;0.000;0.000;2024-02-14T14:02:07;97197.22;;;16.54;66.49
48774;BME280;34576;0.000;0.000;2024-02-14T14:09:09;97193.28;;;16.56;66.48
48774;BME280;34576;0.000;0.000;2024-02-14T14:16:10;97176.28;;;16.58;66.74
48774;BME280;34576;0.000;0.000;2024-02-14T14:23:11;97168.03;;;16.54;66.69
48774;BME280;34576;0.000;0.000;2024-02-14T14:30:11;97171.97;;;16.51;66.91
48774;BME280;34576;0.000;0.000;2024-02-14T14:37:12;97177.53;;;16.50;67.04
48774;BME280;34576;0.000;0.000;2024-02-14T14:44:12;97173.84;;;16.51;66.89
48774;BME280;34576;0.000;0.000;2024-02-14T14:51:12;97162.44;;;16.50;66.90
48774;BME280;34576;0.000;0.000;2024-02-14T14:58:13;97173.28;;;16.49;67.01
48774;BME280;34576;0.000;0.000;2024-02-14T15:05:13;97172.22;;;16.50;66.92
48774;BME280;34576;0.000;0.000;2024-02-14T15:12:13;97169.28;;;16.46;67.17
48774;BME280;34576;0.000;0.000;2024-02-14T15:19:14;97172.22;;;16.45;67.09
48774;BME280;34576;0.000;0.000;2024-02-14T15:26:14;97174.59;;;16.46;67.02
48774;BME280;34576;0.000;0.000;2024-02-14T15:33:17;97179.34;;;16.44;67.02
48774;BME280;34576;0.000;0.000;2024-02-14T15:40:23;97175.09;;;16.43;67.26
48774;BME280;34576;0.000;0.000;2024-02-14T15:47:23;97180.00;;;16.56;66.48
48774;BME280;34576;0.000;0.000;2024-02-14T15:54:24;97180.53;;;16.59;66.11
48774;BME280;34576;0.000;0.000;2024-02-14T16:01:25;97185.84;;;16.59;66.48
48774;BME280;34576;0.000;0.000;2024-02-14T21:49:51;97163.94;;;16.73;67.55
48774;BME280;34576;0.000;0.000;2024-02-14T21:56:51;97167.09;;;16.70;67.70
48774;BME280;34576;0.000;0.000;2024-02-14T22:03:52;97171.06;;;16.73;67.89
48774;BME280;34576;0.000;0.000;2024-02-14T22:10:53;97159.59;;;16.95;66.76
48774;BME280;34576;0.000;0.000;2024-02-14T22:17:55;97174.88;;;16.82;67.98
48774;BME280;34576;0.000;0.000;2024-02-14T22:24:56;97161.34;;;16.84;68.32
48774;BME280;34576;0.000;0.000;2024-02-14T22:31:56;97158.50;;;16.90;68.77
48774;BME280;34576;0.000;0.000;2024-02-14T22:38:57;97157.66;;;16.90;68.97
48774;BME280;34576;0.000;0.000;2024-02-14T22:45:57;97153.97;;;16.91;69.26
48774;BME280;34576;0.000;0.000;2024-02-14T22:52:57;97144.13;;;16.91;68.90
48774;BME280;34576;0.000;0.000;2024-02-14T22:59:57;97151.59;;;16.95;69.36
48774;BME280;34576;0.000;0.000;2024-02-14T23:06:58;97155.84;;;16.96;69.45
48774;BME280;34576;0.000;0.000;2024-02-14T23:14:00;97149.47;;;16.97;69.60
48774;BME280;34576;0.000;0.000;2024-02-14T23:21:00;97155.34;;;16.99;69.54
48774;BME280;34576;0.000;0.000;2024-02-14T23:28:00;97150.56;;;17.01;69.54
48774;BME280;34576;0.000;0.000;2024-02-14T23:35:01;97156.41;;;17.03;69.44
48774;BME280;34576;0.000;0.000;2024-02-14T23:42:04;97143.13;;;17.03;69.85
48774;BME280;34576;0.000;0.000;2024-02-14T23:49:05;97149.00;;;17.05;70.15
48774;BME280;34576;0.000;0.000;2024-02-14T23:56:05;97151.66;;;17.05;70.11
